Time;durP1;ratioP1;P1;durP2;ratioP2;P2;SDS_P1;SDS_P2;PMS_P1;PMS_P2;Temp;Humidity;BMP_temperature;BMP_pressure;BME280_temperature;BME280_humidity;BME280_pressure;Samples;Min_cycle;Max_cycle;Signal;HPM_P1;HPM_P2
2023/06/07 00:01:33;;;;;;;11.95;6.25;;;18.20;99.90;;;;;;5053473;28;20474;-57
2023/06/07 00:03:59;;;;;;;9.90;5.68;;;18.00;99.90;;;;;;5053231;28;20037;-58
2023/06/07 00:06:24;;;;;;;12.75;6.28;;;18.00;99.90;;;;;;5047018;28;20035;-58
2023/06/07 00:08:50;;;;;;;13.57;5.97;;;18.10;99.90;;;;;;5055105;28;20502;-58
2023/06/07 00:11:16;;;;;;;13.35;6.10;;;18.10;99.90;;;;;;5056422;28;20092;-58
2023/06/07 00:13:41;;;;;;;12.60;6.25;;;18.20;99.90;;;;;;5055777;28;20029;-58
2023/06/07 00:16:07;;;;;;;14.10;6.47;;;18.00;99.90;;;;;;5055193;28;20037;-58
2023/06/07 00:18:33;;;;;;;12.52;6.28;;;18.00;99.90;;;;;;5056542;28;20513;-57
2023/06/07 00:20:58;;;;;;;13.32;6.15;;;18.00;99.90;;;;;;5049133;28;20532;-57
2023/06/07 00:23:26;;;;;;;11.50;6.40;;;17.90;99.90;;;;;;5042325;28;20120;-58
2023/06/07 00:25:52;;;;;;;12.15;6.20;;;17.70;99.90;;;;;;5054777;28;20622;-58
2023/06/07 00:28:17;;;;;;;13.07;6.35;;;17.60;99.90;;;;;;5053714;28;20025;-57
2023/06/07 00:30:43;;;;;;;12.93;6.22;;;17.70;99.90;;;;;;5055404;28;20036;-57
2023/06/07 00:33:08;;;;;;;16.58;6.38;;;17.60;99.90;;;;;;5047644;28;20068;-58
2023/06/07 00:35:34;;;;;;;10.80;6.18;;;17.60;99.90;;;;;;5057042;28;20041;-58
2023/06/07 00:38:00;;;;;;;13.95;6.28;;;17.70;99.90;;;;;;5050826;28;20033;-58
2023/06/07 00:40:25;;;;;;;13.30;6.28;;;17.70;99.90;;;;;;5053339;28;20039;-57
2023/06/07 00:42:51;;;;;;;12.98;7.00;;;17.80;99.90;;;;;;5053633;28;20025;-58
2023/06/07 00:45:16;;;;;;;18.60;7.05;;;17.50;99.90;;;;;;5050535;28;20567;-58
2023/06/07 00:47:42;;;;;;;12.48;6.47;;;17.70;99.90;;;;;;5063140;28;20571;-58
2023/06/07 00:50:08;;;;;;;10.55;6.45;;;17.50;99.90;;;;;;5059301;28;20168;-58
2023/06/07 00:52:35;;;;;;;15.02;7.20;;;17.50;99.90;;;;;;5064819;28;20381;-57
2023/06/07 00:55:02;;;;;;;14.15;6.93;;;17.30;99.90;;;;;;5064909;28;20047;-57
2023/06/07 00:57:33;;;;;;;13.68;6.30;;;17.20;99.90;;;;;;5056294;28;20341;-57
2023/06/07 01:00:00;;;;;;;10.10;6.70;;;17.10;99.90;;;;;;5059101;28;20033;-58
2023/06/07 01:02:26;;;;;;;14.35;7.32;;;17.20;99.90;;;;;;5057656;28;20098;-58
2023/06/07 01:04:52;;;;;;;12.20;6.93;;;17.10;99.90;;;;;;5055511;28;20041;-57
2023/06/07 01:07:24;;;;;;;15.02;7.03;;;;;;;;;;5053024;28;20451;-57
2023/06/07 01:09:52;;;;;;;12.17;6.50;;;16.60;99.90;;;;;;5058526;28;20033;-58
2023/06/07 01:12:18;;;;;;;21.48;7.93;;;16.60;99.90;;;;;;5055597;28;20386;-57
2023/06/07 01:14:49;;;;;;;12.73;7.20;;;16.60;99.90;;;;;;5052264;28;20025;-57
2023/06/07 01:17:17;;;;;;;12.18;6.97;;;17.00;99.90;;;;;;5056138;28;20040;-58
2023/06/07 01:19:51;;;;;;;15.65;7.15;;;16.90;99.90;;;;;;5054758;28;20048;-58
2023/06/07 01:22:20;;;;;;;11.52;7.03;;;16.60;99.90;;;;;;5053384;28;20041;-58
2023/06/07 01:24:48;;;;;;;15.88;8.00;;;16.70;99.90;;;;;;5058481;28;20751;-58
2023/06/07 01:27:15;;;;;;;15.65;7.60;;;16.70;99.90;;;;;;5056613;28;20337;-58
2023/06/07 01:29:41;;;;;;;15.30;7.07;;;16.70;99.90;;;;;;5060345;28;20059;-57
2023/06/07 01:32:09;;;;;;;15.88;7.57;;;16.60;99.90;;;;;;5053130;28;20036;-58
2023/06/07 01:34:35;;;;;;;13.68;8.10;;;16.70;99.90;;;;;;5054462;28;20545;-58
2023/06/07 01:37:02;;;;;;;17.15;7.90;;;16.60;99.90;;;;;;5059849;28;20032;-58
2023/06/07 01:39:29;;;;;;;15.43;7.38;;;16.70;99.90;;;;;;5057637;28;20071;-57
2023/06/07 01:41:56;;;;;;;13.15;7.50;;;16.60;99.90;;;;;;5056760;28;20086;-57
2023/06/07 01:44:22;;;;;;;17.05;7.68;;;16.40;99.90;;;;;;5056261;28;20047;-57
2023/06/07 01:46:48;;;;;;;16.88;7.47;;;16.40;99.90;;;;;;5059318;28;20223;-58
2023/06/07 01:49:16;;;;;;;11.55;7.05;;;16.30;99.90;;;;;;5054915;28;20071;-57
2023/06/07 01:51:42;;;;;;;15.63;7.47;;;16.30;99.90;;;;;;5052280;28;20492;-57
2023/06/07 01:54:07;;;;;;;12.38;7.10;;;16.20;99.90;;;;;;5058528;28;20058;-58
2023/06/07 01:56:41;;;;;;;14.75;7.55;;;16.00;99.90;;;;;;5051548;28;20038;-58
2023/06/07 01:59:38;;;;;;;16.58;7.32;;;16.00;99.90;;;;;;5056486;28;20064;-57
2023/06/07 02:02:34;;;;;;;15.63;7.43;;;16.20;99.90;;;;;;5058541;28;20527;-57
2023/06/07 02:05:04;;;;;;;21.48;7.75;;;16.30;99.90;;;;;;5057857;28;20072;-57
2023/06/07 02:07:35;;;;;;;13.65;7.40;;;16.10;99.90;;;;;;5061820;28;20055;-57
2023/06/07 02:10:02;;;;;;;14.82;7.30;;;16.10;99.90;;;;;;5050143;28;20362;-57
2023/06/07 02:12:30;;;;;;;15.57;7.55;;;15.90;99.90;;;;;;5061853;28;20131;-57
2023/06/07 02:14:57;;;;;;;15.88;8.10;;;15.90;99.90;;;;;;5057674;28;20575;-57
2023/06/07 02:17:23;;;;;;;17.00;8.05;;;16.00;99.90;;;;;;5055915;28;20605;-57
2023/06/07 02:19:48;;;;;;;14.10;7.75;;;16.00;99.90;;;;;;5061891;28;20066;-58
2023/06/07 02:22:14;;;;;;;12.60;7.97;;;16.00;99.90;;;;;;5059658;28;20042;-58
2023/06/07 02:24:41;;;;;;;16.80;8.10;;;16.00;99.90;;;;;;5058415;28;20094;-57
2023/06/07 02:27:08;;;;;;;15.73;8.40;;;16.10;99.90;;;;;;5055725;28;20279;-57
2023/06/07 02:29:33;;;;;;;15.95;7.82;;;16.40;99.90;;;;;;5056796;28;20024;-57
2023/06/07 02:32:00;;;;;;;14.07;8.10;;;16.20;99.90;;;;;;5062144;28;20044;-59
2023/06/07 02:34:26;;;;;;;14.30;7.70;;;16.20;99.90;;;;;;5060047;28;20025;-57
2023/06/07 02:36:52;;;;;;;14.90;8.35;;;16.20;99.90;;;;;;5055226;28;20036;-57
2023/06/07 02:39:18;;;;;;;18.17;8.80;;;16.30;99.90;;;;;;5055777;28;20142;-58
2023/06/07 02:41:44;;;;;;;15.38;8.45;;;16.20;99.90;;;;;;5063916;28;20044;-57
2023/06/07 02:44:10;;;;;;;12.88;8.15;;;16.00;99.90;;;;;;5053744;28;20108;-58
2023/06/07 02:46:35;;;;;;;18.80;7.30;;;15.80;99.90;;;;;;5058262;28;20040;-57
2023/06/07 02:49:01;;;;;;;15.32;8.07;;;15.80;99.90;;;;;;5054409;28;20037;-58
2023/06/07 02:51:26;;;;;;;19.60;8.20;;;15.80;99.90;;;;;;5056946;28;20120;-57
2023/06/07 02:53:53;;;;;;;16.02;8.57;;;16.00;99.90;;;;;;5058764;28;20033;-57
2023/06/07 02:56:18;;;;;;;14.60;7.97;;;15.90;99.90;;;;;;5058668;28;20030;-57
2023/06/07 02:58:44;;;;;;;13.63;7.80;;;15.70;99.90;;;;;;5059757;28;20407;-57
2023/06/07 03:05:28;;;;;;;15.20;8.50;;;15.80;99.90;;;;;;5057380;28;20066;-57
2023/06/07 03:07:56;;;;;;;18.25;8.35;;;15.70;99.90;;;;;;5054723;28;20429;-57
2023/06/07 03:10:22;;;;;;;17.70;8.25;;;15.80;99.90;;;;;;5058661;28;20028;-57
2023/06/07 03:12:48;;;;;;;15.75;7.78;;;15.70;99.90;;;;;;5062334;28;20444;-57
2023/06/07 03:15:13;;;;;;;15.55;8.68;;;15.70;99.90;;;;;;5062812;28;20055;-57
2023/06/07 03:17:41;;;;;;;17.15;8.32;;;15.80;99.90;;;;;;5053582;28;20041;-57
2023/06/07 03:20:08;;;;;;;16.50;8.25;;;15.80;99.90;;;;;;5059329;28;20112;-57
2023/06/07 03:22:36;;;;;;;15.70;8.15;;;15.80;99.90;;;;;;5062489;28;20067;-58
2023/06/07 03:25:02;;;;;;;14.43;7.90;;;15.60;99.90;;;;;;5056934;28;20506;-58
2023/06/07 03:27:29;;;;;;;19.55;8.40;;;15.60;99.90;;;;;;5058396;28;20593;-57
2023/06/07 03:29:55;;;;;;;16.73;8.52;;;15.70;99.90;;;;;;5060354;28;20494;-57
2023/06/07 03:32:20;;;;;;;15.98;8.68;;;15.60;99.90;;;;;;5056424;28;20041;-57
2023/06/07 03:34:46;;;;;;;15.75;8.25;;;15.80;99.90;;;;;;5053116;28;20140;-57
2023/06/07 03:37:11;;;;;;;15.45;8.63;;;15.90;99.90;;;;;;5054322;28;20035;-57
2023/06/07 03:39:39;;;;;;;16.40;8.23;;;15.80;99.90;;;;;;5059651;28;20696;-57
2023/06/07 03:42:06;;;;;;;15.07;8.60;;;16.00;99.90;;;;;;5047814;28;20037;-57
2023/06/07 03:44:32;;;;;;;17.95;8.32;;;15.90;99.90;;;;;;5058877;28;20637;-57
2023/06/07 03:46:57;;;;;;;18.58;8.85;;;16.00;99.90;;;;;;5056381;28;20090;-57
2023/06/07 03:49:23;;;;;;;13.68;8.70;;;15.70;99.90;;;;;;5054851;28;20126;-57
2023/06/07 03:51:49;;;;;;;18.98;8.55;;;15.70;99.90;;;;;;5055617;28;20056;-57
2023/06/07 03:54:15;;;;;;;16.85;8.55;;;15.90;99.90;;;;;;5056146;28;20484;-57
2023/06/07 03:56:41;;;;;;;15.65;8.55;;;15.70;99.90;;;;;;5058101;28;20094;-57
2023/06/07 03:59:06;;;;;;;16.77;8.60;;;15.70;99.90;;;;;;5055948;28;20085;-57
2023/06/07 04:01:32;;;;;;;14.18;8.48;;;15.60;99.90;;;;;;5056822;28;20071;-57
2023/06/07 04:03:57;;;;;;;15.30;8.90;;;15.70;99.90;;;;;;5049810;28;20036;-57
2023/06/07 04:06:28;;;;;;;20.10;9.82;;;15.70;99.90;;;;;;5052026;28;20028;-57
2023/06/07 04:08:56;;;;;;;16.42;8.95;;;15.60;99.90;;;;;;5056343;28;20036;-57
2023/06/07 04:11:22;;;;;;;18.08;8.48;;;15.60;99.90;;;;;;5057535;28;20036;-58
2023/06/07 04:13:48;;;;;;;15.65;8.65;;;15.70;99.90;;;;;;5059720;28;20039;-57
2023/06/07 04:16:13;;;;;;;15.27;9.15;;;15.60;99.90;;;;;;5055062;28;20044;-57
2023/06/07 04:18:39;;;;;;;13.85;8.07;;;15.50;99.90;;;;;;5058166;28;20480;-57
2023/06/07 04:21:05;;;;;;;16.20;9.20;;;15.60;99.90;;;;;;5054596;28;20072;-57
2023/06/07 04:23:32;;;;;;;16.45;9.13;;;15.60;99.90;;;;;;5058460;28;20389;-57
2023/06/07 04:25:58;;;;;;;16.38;8.85;;;15.60;99.90;;;;;;5055231;28;20031;-57
2023/06/07 04:28:24;;;;;;;15.85;9.43;;;15.60;99.90;;;;;;5060343;28;20041;-57
2023/06/07 04:30:51;;;;;;;15.23;8.75;;;15.60;99.90;;;;;;5057238;28;20103;-57
2023/06/07 04:33:19;;;;;;;14.75;8.65;;;15.80;99.90;;;;;;5055617;28;20037;-57
2023/06/07 04:35:45;;;;;;;17.02;9.15;;;15.80;99.90;;;;;;5053188;28;20634;-57
2023/06/07 04:38:15;;;;;;;17.20;9.32;;;15.70;99.90;;;;;;5052457;28;20437;-58
2023/06/07 04:40:42;;;;;;;15.82;8.88;;;15.50;99.90;;;;;;5050664;28;20039;-57
2023/06/07 04:43:10;;;;;;;15.65;9.05;;;15.70;99.90;;;;;;5059129;28;20083;-57
2023/06/07 04:45:40;;;;;;;14.93;9.35;;;15.60;99.90;;;;;;5058677;28;20044;-60
2023/06/07 04:48:07;;;;;;;17.65;9.85;;;15.70;99.90;;;;;;5052586;28;20038;-60
2023/06/07 04:50:33;;;;;;;19.23;9.43;;;15.50;99.90;;;;;;5053180;28;20115;-60
2023/06/07 04:53:02;;;;;;;17.30;9.40;;;15.70;99.90;;;;;;5057569;28;20033;-60
2023/06/07 04:55:30;;;;;;;17.77;9.90;;;15.40;99.90;;;;;;5057457;28;20071;-60
2023/06/07 04:57:57;;;;;;;16.83;9.95;;;15.60;99.90;;;;;;5054029;28;20040;-60
2023/06/07 05:00:25;;;;;;;17.52;9.93;;;15.50;99.90;;;;;;5057622;28;20025;-60
2023/06/07 05:02:54;;;;;;;16.52;9.85;;;15.90;99.90;;;;;;5057956;28;20661;-60
2023/06/07 05:05:20;;;;;;;17.63;9.32;;;15.90;99.90;;;;;;5048691;28;20087;-60
2023/06/07 05:07:46;;;;;;;14.07;9.55;;;16.10;99.90;;;;;;5056529;28;20233;-60
2023/06/07 05:10:12;;;;;;;18.08;10.18;;;16.00;99.90;;;;;;5056134;28;20041;-60
2023/06/07 05:12:38;;;;;;;15.13;9.45;;;16.10;99.90;;;;;;5056325;28;20039;-60
2023/06/07 05:15:05;;;;;;;19.60;10.45;;;15.90;99.90;;;;;;5053074;28;20039;-60
2023/06/07 05:17:31;;;;;;;18.85;9.63;;;15.80;99.90;;;;;;5057763;28;20036;-60
2023/06/07 05:19:56;;;;;;;16.75;9.40;;;15.70;99.90;;;;;;5057885;28;20039;-60
2023/06/07 05:22:22;;;;;;;18.10;9.68;;;15.50;99.90;;;;;;5051193;28;20396;-59
2023/06/07 05:24:48;;;;;;;14.80;9.90;;;15.70;99.90;;;;;;5053442;28;20596;-57
2023/06/07 05:27:17;;;;;;;20.10;10.65;;;15.60;99.90;;;;;;5056205;28;21131;-57
2023/06/07 05:29:43;;;;;;;15.95;9.82;;;15.60;99.90;;;;;;5062910;28;20052;-57
2023/06/07 05:32:09;;;;;;;16.63;9.80;;;15.70;99.90;;;;;;5063894;28;20040;-57
2023/06/07 05:34:35;;;;;;;18.88;10.65;;;15.80;99.90;;;;;;5058002;28;20025;-57
2023/06/07 05:37:02;;;;;;;16.98;10.35;;;15.60;99.90;;;;;;5063556;28;20438;-57
2023/06/07 05:39:27;;;;;;;17.42;10.18;;;16.00;99.90;;;;;;5055766;28;20488;-57
2023/06/07 05:41:53;;;;;;;23.58;10.23;;;15.90;99.90;;;;;;5056594;28;20036;-57
2023/06/07 05:44:18;;;;;;;17.33;10.23;;;15.90;99.90;;;;;;5062878;28;20239;-57
2023/06/07 05:46:44;;;;;;;18.80;10.10;;;15.80;99.90;;;;;;5060214;28;20028;-57
2023/06/07 05:49:10;;;;;;;22.48;11.15;;;15.80;99.90;;;;;;5053152;28;20078;-57
2023/06/07 05:51:36;;;;;;;15.77;9.85;;;15.70;99.90;;;;;;5063006;28;20033;-57
2023/06/07 05:54:02;;;;;;;27.20;16.83;;;15.60;99.90;;;;;;5062277;28;20053;-59
2023/06/07 05:56:27;;;;;;;28.10;12.98;;;15.70;99.90;;;;;;5058788;28;20546;-57
2023/06/07 05:58:53;;;;;;;21.95;10.68;;;15.70;99.90;;;;;;5051365;28;20027;-57
2023/06/07 06:01:19;;;;;;;19.00;10.95;;;15.70;99.90;;;;;;5044311;28;20037;-56
2023/06/07 06:03:44;;;;;;;18.92;10.57;;;15.80;99.90;;;;;;5058472;28;20369;-57
2023/06/07 06:06:17;;;;;;;18.80;10.88;;;16.00;99.90;;;;;;5060931;28;20107;-57
2023/06/07 06:08:44;;;;;;;21.23;11.23;;;16.00;99.90;;;;;;5062069;28;20028;-57
2023/06/07 06:11:11;;;;;;;21.52;10.88;;;15.90;99.90;;;;;;5060195;28;20447;-57
2023/06/07 06:13:37;;;;;;;19.05;10.07;;;16.10;99.90;;;;;;5058217;28;20047;-57
2023/06/07 06:16:02;;;;;;;24.58;11.13;;;16.20;99.90;;;;;;5058518;28;20036;-57
2023/06/07 06:18:28;;;;;;;17.45;10.05;;;16.00;99.90;;;;;;5050235;28;20047;-56
2023/06/07 06:20:54;;;;;;;18.65;11.63;;;15.90;99.90;;;;;;5062122;28;20657;-57
2023/06/07 06:23:20;;;;;;;22.10;10.98;;;16.20;99.90;;;;;;5052676;28;20033;-57
2023/06/07 06:25:46;;;;;;;22.42;10.68;;;16.00;99.90;;;;;;5058630;28;20112;-57
2023/06/07 06:28:12;;;;;;;17.95;11.10;;;16.10;99.90;;;;;;5060475;28;20024;-57
2023/06/07 06:30:37;;;;;;;24.27;11.23;;;16.10;99.90;;;;;;5054981;28;20048;-57
2023/06/07 06:33:03;;;;;;;20.85;11.75;;;16.10;99.90;;;;;;5062154;28;20087;-56
2023/06/07 06:35:32;;;;;;;20.17;11.70;;;16.10;99.90;;;;;;5062596;28;20085;-56
2023/06/07 06:37:58;;;;;;;19.95;11.30;;;16.40;99.90;;;;;;5059877;28;20078;-56
2023/06/07 06:40:24;;;;;;;17.65;11.32;;;16.50;99.90;;;;;;5042904;28;20045;-56
2023/06/07 06:42:49;;;;;;;23.95;12.05;;;16.30;99.90;;;;;;5051804;28;20033;-56
2023/06/07 06:45:15;;;;;;;24.67;12.13;;;16.30;99.90;;;;;;5051064;28;20022;-57
2023/06/07 06:47:41;;;;;;;20.23;11.68;;;16.30;99.90;;;;;;5050201;28;20502;-56
2023/06/07 06:50:08;;;;;;;20.60;11.65;;;16.30;99.90;;;;;;5051554;28;20033;-57
2023/06/07 06:52:33;;;;;;;24.98;14.38;;;16.40;99.90;;;;;;5049020;28;20120;-57
2023/06/07 06:54:59;;;;;;;18.40;11.18;;;16.40;99.90;;;;;;5051680;28;20123;-56
2023/06/07 06:57:24;;;;;;;21.40;12.20;;;16.50;99.90;;;;;;5050494;28;20120;-57
2023/06/07 06:59:50;;;;;;;23.45;11.73;;;16.40;99.90;;;;;;5047631;28;20617;-56
2023/06/07 07:02:16;;;;;;;20.73;11.68;;;16.30;99.90;;;;;;5053623;28;20461;-57
2023/06/07 07:04:42;;;;;;;21.02;11.55;;;16.00;99.90;;;;;;5045824;28;20572;-57
2023/06/07 07:07:07;;;;;;;17.10;11.00;;;16.00;99.90;;;;;;5048493;28;20500;-57
2023/06/07 07:09:33;;;;;;;24.70;11.73;;;16.30;99.90;;;;;;5048967;28;20436;-57
2023/06/07 07:11:59;;;;;;;21.02;12.07;;;16.20;99.90;;;;;;5050962;28;20321;-57
2023/06/07 07:14:25;;;;;;;18.83;11.75;;;16.40;99.90;;;;;;5048866;28;20047;-59
2023/06/07 07:16:50;;;;;;;21.75;11.65;;;16.30;99.90;;;;;;5046593;28;20037;-56
2023/06/07 07:19:16;;;;;;;19.23;11.32;;;16.00;99.90;;;;;;5047194;28;20029;-56
2023/06/07 07:21:43;;;;;;;24.58;11.73;;;16.10;99.90;;;;;;5048161;28;20037;-57
2023/06/07 07:24:08;;;;;;;21.63;11.15;;;16.10;99.90;;;;;;5045586;28;20025;-57
2023/06/07 07:26:35;;;;;;;28.15;12.30;;;16.00;99.90;;;;;;5049321;28;20480;-57
2023/06/07 07:29:01;;;;;;;20.60;11.27;;;16.00;99.90;;;;;;5050618;28;20040;-57
2023/06/07 07:31:30;;;;;;;21.25;11.48;;;16.00;99.90;;;;;;5052335;28;20040;-57
2023/06/07 07:33:56;;;;;;;19.63;11.73;;;16.00;99.90;;;;;;5049822;28;20507;-58
2023/06/07 07:36:22;;;;;;;19.95;12.60;;;16.10;99.90;;;;;;5053718;28;22397;-57
2023/06/07 07:38:48;;;;;;;21.35;11.70;;;16.00;99.90;;;;;;5050720;28;20029;-57
2023/06/07 07:41:14;;;;;;;22.00;12.55;;;16.20;99.90;;;;;;5050413;28;20032;-57
2023/06/07 07:43:40;;;;;;;22.00;12.15;;;16.10;99.90;;;;;;5050283;28;20037;-57
2023/06/07 07:46:06;;;;;;;27.85;11.63;;;15.90;99.90;;;;;;5041192;28;20041;-57
2023/06/07 07:48:35;;;;;;;20.00;10.95;;;16.00;99.90;;;;;;5056624;28;20571;-57
2023/06/07 07:51:01;;;;;;;19.30;10.88;;;16.10;99.90;;;;;;5046523;28;20041;-57
2023/06/07 07:53:27;;;;;;;21.15;11.32;;;16.10;99.90;;;;;;5048596;28;20033;-57
2023/06/07 07:55:53;;;;;;;23.73;11.23;;;15.90;99.90;;;;;;5050617;28;20102;-57
2023/06/07 07:58:18;;;;;;;20.88;11.45;;;16.10;99.90;;;;;;5047371;28;20025;-57
2023/06/07 08:00:44;;;;;;;19.88;11.35;;;16.30;99.90;;;;;;5053439;28;20032;-57
2023/06/07 08:03:10;;;;;;;18.63;10.70;;;16.20;99.90;;;;;;5046701;28;20041;-57
2023/06/07 08:05:36;;;;;;;18.48;11.07;;;16.20;99.90;;;;;;5048838;28;20040;-57
2023/06/07 08:08:02;;;;;;;21.08;11.57;;;16.10;99.90;;;;;;5052549;28;20543;-58
2023/06/07 08:10:28;;;;;;;16.95;11.13;;;16.20;99.90;;;;;;5051412;28;20028;-57
2023/06/07 08:12:53;;;;;;;24.20;10.90;;;16.00;99.90;;;;;;5047937;28;20051;-57
2023/06/07 08:15:19;;;;;;;20.65;11.13;;;16.30;99.90;;;;;;5048267;28;20151;-57
2023/06/07 08:17:45;;;;;;;20.80;11.32;;;16.10;99.90;;;;;;5047425;28;20088;-57
2023/06/07 08:20:11;;;;;;;24.38;11.43;;;16.20;99.90;;;;;;5052615;28;20036;-57
2023/06/07 08:22:37;;;;;;;23.30;11.43;;;16.00;99.90;;;;;;5050546;28;20156;-57
2023/06/07 08:25:04;;;;;;;24.38;12.25;;;16.00;99.90;;;;;;5051511;28;20040;-57
2023/06/07 08:27:30;;;;;;;23.48;11.60;;;16.00;99.90;;;;;;5049170;28;20189;-57
2023/06/07 08:29:56;;;;;;;31.02;16.85;;;15.80;99.90;;;;;;5047404;28;20123;-57
2023/06/07 08:32:22;;;;;;;27.42;12.35;;;15.80;99.90;;;;;;5046016;28;20450;-58
2023/06/07 08:34:47;;;;;;;18.42;11.68;;;15.80;99.90;;;;;;5049674;28;20545;-57
2023/06/07 08:37:13;;;;;;;22.58;12.35;;;15.90;99.90;;;;;;5055184;28;20044;-58
2023/06/07 08:39:39;;;;;;;25.00;12.77;;;15.90;99.90;;;;;;5052128;28;20032;-57
2023/06/07 08:42:05;;;;;;;27.05;13.43;;;15.80;99.90;;;;;;5051045;28;20125;-56
2023/06/07 08:44:31;;;;;;;23.08;12.85;;;15.90;99.90;;;;;;5056302;28;20102;-57
2023/06/07 08:46:57;;;;;;;21.08;13.45;;;15.80;99.90;;;;;;5051678;28;20423;-56
2023/06/07 08:49:31;;;;;;;23.65;13.45;;;15.80;99.90;;;;;;5044357;28;20240;-56
2023/06/07 08:51:58;;;;;;;25.75;13.32;;;15.80;99.90;;;;;;5045960;28;20058;-57
2023/06/07 08:54:27;;;;;;;26.70;13.98;;;15.70;99.90;;;;;;5049426;28;20044;-56
2023/06/07 08:56:54;;;;;;;24.55;14.48;;;15.90;99.90;;;;;;5049920;28;20052;-56
2023/06/07 08:59:24;;;;;;;24.55;14.55;;;15.70;99.90;;;;;;5054228;28;20125;-56
2023/06/07 09:01:51;;;;;;;31.05;14.27;;;15.50;99.90;;;;;;5049587;28;20052;-56
2023/06/07 09:04:17;;;;;;;23.98;14.30;;;15.60;99.90;;;;;;5051672;28;20452;-55
2023/06/07 09:06:43;;;;;;;27.33;15.20;;;15.30;99.90;;;;;;5055550;28;20029;-55
2023/06/07 09:09:08;;;;;;;27.30;15.05;;;15.10;99.90;;;;;;5054045;28;20032;-56
2023/06/07 09:11:34;;;;;;;27.63;16.02;;;15.10;99.90;;;;;;5058305;28;20109;-56
2023/06/07 09:14:00;;;;;;;30.92;16.90;;;14.90;99.90;;;;;;5053237;28;20140;-63
2023/06/07 09:16:26;;;;;;;29.88;16.55;;;15.00;99.90;;;;;;5055165;28;20032;-63
2023/06/07 09:18:55;;;;;;;28.10;15.10;;;15.00;99.90;;;;;;5049917;28;20572;-64
2023/06/07 09:21:28;;;;;;;26.33;16.05;;;15.10;99.90;;;;;;5051133;28;20055;-64
2023/06/07 09:23:55;;;;;;;;;;;15.10;99.90;;;;;;5054545;28;20488;-62
2023/06/07 09:26:22;;;;;;;165.50;117.55;;;15.20;99.90;;;;;;5057817;28;19912;-61
2023/06/07 09:28:51;;;;;;;29.38;16.65;;;15.50;99.90;;;;;;5052114;28;20032;-62
2023/06/07 09:31:32;;;;;;;32.38;16.75;;;15.40;99.90;;;;;;5048277;28;20040;-61
2023/06/07 09:33:58;;;;;;;28.73;16.80;;;15.40;99.90;;;;;;5052586;28;20848;-62
2023/06/07 09:36:24;;;;;;;28.30;17.02;;;15.60;99.90;;;;;;5055353;28;20037;-63
2023/06/07 09:38:50;;;;;;;25.88;16.08;;;15.50;99.90;;;;;;5057251;28;20116;-62
2023/06/07 09:41:15;;;;;;;32.75;16.48;;;15.50;99.90;;;;;;5058573;28;20940;-63
2023/06/07 09:43:42;;;;;;;26.80;16.77;;;15.50;99.90;;;;;;5058025;28;20397;-64
2023/06/07 09:46:09;;;;;;;25.02;16.02;;;15.80;99.90;;;;;;5060100;28;20056;-63
2023/06/07 09:49:04;;;;;;;26.77;16.48;;;15.50;99.90;;;;;;5051685;28;20070;-63
2023/06/07 09:51:40;;;;;;;23.25;15.80;;;15.60;99.90;;;;;;5040547;28;20076;-64
2023/06/07 09:54:07;;;;;;;31.15;17.27;;;15.50;99.90;;;;;;5052529;28;20039;-63
2023/06/07 09:56:39;;;;;;;31.88;17.55;;;15.50;99.90;;;;;;5056090;28;20036;-64
2023/06/07 09:59:09;;;;;;;26.33;17.42;;;15.60;99.90;;;;;;5055499;28;20057;-64
2023/06/07 10:01:45;;;;;;;25.88;16.83;;;15.50;99.90;;;;;;5057862;28;20094;-65
2023/06/07 10:04:11;;;;;;;29.15;17.65;;;15.30;99.90;;;;;;5053820;28;20044;-63
2023/06/07 10:06:42;;;;;;;28.52;17.27;;;15.20;99.90;;;;;;5050797;28;20575;-62
2023/06/07 10:09:08;;;;;;;51.70;32.75;;;15.10;99.90;;;;;;5055663;28;20037;-63
2023/06/07 10:11:38;;;;;;;29.38;18.55;;;15.10;99.90;;;;;;5054085;28;20037;-65
2023/06/07 10:14:16;;;;;;;29.73;17.67;;;15.20;99.90;;;;;;5056784;28;20079;-64
2023/06/07 10:17:04;;;;;;;30.23;17.27;;;15.30;99.90;;;;;;5051015;28;20052;-65
2023/06/07 10:19:43;;;;;;;32.50;17.85;;;15.30;99.90;;;;;;5050021;28;20037;-65
2023/06/07 10:22:14;;;;;;;26.50;18.52;;;15.30;99.90;;;;;;5052942;28;20060;-64
2023/06/07 10:24:43;;;;;;;26.70;18.77;;;15.60;99.90;;;;;;5052027;28;20240;-65
2023/06/07 10:27:13;;;;;;;29.27;18.70;;;15.40;99.90;;;;;;5058063;28;20024;-64
2023/06/07 10:29:47;;;;;;;32.25;18.92;;;15.60;99.90;;;;;;5053892;28;20477;-64
2023/06/07 10:32:16;;;;;;;34.40;18.25;;;15.60;99.90;;;;;;5060350;28;20120;-64
2023/06/07 10:34:47;;;;;;;38.15;22.08;;;15.60;99.90;;;;;;5051963;28;20441;-64
2023/06/07 10:37:16;;;;;;;34.95;21.67;;;15.70;99.90;;;;;;5052847;28;20492;-65
2023/06/07 10:39:42;;;;;;;32.65;20.55;;;15.80;99.90;;;;;;5055879;28;20033;-64
2023/06/07 10:42:08;;;;;;;31.77;19.95;;;15.60;99.90;;;;;;5055381;28;20075;-63
2023/06/07 10:44:37;;;;;;;34.63;20.55;;;15.80;99.90;;;;;;5054260;28;20381;-63
2023/06/07 10:47:21;;;;;;;35.95;20.67;;;15.80;99.90;;;;;;5051527;28;20075;-64
2023/06/07 10:49:47;;;;;;;27.75;19.38;;;15.90;99.90;;;;;;5053214;28;20660;-65
2023/06/07 10:52:15;;;;;;;35.13;20.30;;;15.80;99.90;;;;;;5058365;28;20049;-65
2023/06/07 10:54:42;;;;;;;36.85;21.23;;;16.10;99.90;;;;;;5045708;28;20082;-65
2023/06/07 10:57:07;;;;;;;30.85;19.95;;;16.20;99.90;;;;;;5045493;28;20029;-65
2023/06/07 10:59:34;;;;;;;64.57;24.52;;;16.40;99.90;;;;;;5058583;28;20392;-65
2023/06/07 11:02:23;;;;;;;37.90;20.08;;;16.40;99.90;;;;;;5051476;28;20416;-66
2023/06/07 11:04:49;;;;;;;30.25;18.95;;;16.30;99.90;;;;;;5052564;28;20029;-66
2023/06/07 11:07:23;;;;;;;26.40;17.85;;;16.30;99.90;;;;;;5047095;28;20350;-65
2023/06/07 11:10:09;;;;;;;29.00;18.05;;;16.20;99.90;;;;;;5051729;28;20127;-66
2023/06/07 11:12:34;;;;;;;28.58;17.02;;;16.30;99.90;;;;;;5049204;28;20049;-66
2023/06/07 11:15:21;;;;;;;28.67;18.33;;;16.40;99.90;;;;;;5049908;28;20099;-66
2023/06/07 11:17:58;;;;;;;26.25;17.55;;;16.60;99.90;;;;;;5041775;28;20040;-66
2023/06/07 11:20:35;;;;;;;30.42;18.67;;;16.30;99.90;;;;;;5053221;28;20065;-66
2023/06/07 11:23:29;;;;;;;26.63;17.65;;;16.50;99.90;;;;;;5044750;28;20045;-67
2023/06/07 11:26:05;;;;;;;28.85;17.85;;;16.60;99.90;;;;;;5052260;28;20138;-67
2023/06/07 11:28:32;;;;;;;27.15;18.25;;;16.70;99.90;;;;;;5049092;28;20040;-66
2023/06/07 11:30:59;;;;;;;24.48;17.70;;;16.90;99.90;;;;;;5058019;28;20054;-66
2023/06/07 11:33:25;;;;;;;28.33;17.60;;;17.10;99.90;;;;;;5050314;28;20041;-66
2023/06/07 11:35:52;;;;;;;27.73;17.90;;;17.00;99.90;;;;;;5059233;28;20039;-66
2023/06/07 11:38:19;;;;;;;26.65;17.83;;;16.90;99.90;;;;;;5048674;28;20042;-66
2023/06/07 11:40:45;;;;;;;28.60;19.55;;;17.00;99.90;;;;;;5049544;28;20109;-66
2023/06/07 11:43:12;;;;;;;24.48;17.33;;;16.90;99.90;;;;;;5046474;28;20128;-66
2023/06/07 11:45:43;;;;;;;29.00;17.83;;;17.10;99.90;;;;;;5049638;28;20044;-67
2023/06/07 11:48:10;;;;;;;26.45;17.73;;;17.30;99.90;;;;;;5051415;28;20500;-66
2023/06/07 11:50:40;;;;;;;28.75;18.58;;;17.30;99.90;;;;;;5054403;28;21302;-67
2023/06/07 11:53:11;;;;;;;27.65;17.95;;;17.30;99.90;;;;;;5056085;28;20497;-66
2023/06/07 11:55:37;;;;;;;28.70;17.80;;;17.80;99.90;;;;;;5050504;28;20535;-66
2023/06/07 11:58:05;;;;;;;23.17;16.88;;;17.90;99.90;;;;;;5045392;28;20043;-65
2023/06/07 12:00:35;;;;;;;28.25;17.55;;;17.70;99.90;;;;;;5053791;28;20818;-67
2023/06/07 12:03:02;;;;;;;26.60;17.02;;;17.80;99.90;;;;;;5051404;28;20049;-67
2023/06/07 12:05:31;;;;;;;29.40;16.98;;;17.80;99.90;;;;;;5056382;28;20040;-66
2023/06/07 12:08:04;;;;;;;24.80;17.10;;;17.80;99.90;;;;;;5047994;28;20043;-66
2023/06/07 12:10:31;;;;;;;27.35;17.27;;;18.00;99.90;;;;;;5055662;28;20436;-66
2023/06/07 12:13:23;;;;;;;26.38;17.27;;;18.30;99.90;;;;;;5055433;28;20455;-67
2023/06/07 12:15:53;;;;;;;23.75;15.32;;;18.20;99.90;;;;;;5051025;28;20045;-66
2023/06/07 12:18:20;;;;;;;23.80;16.67;;;18.30;99.90;;;;;;5055453;28;20071;-66
2023/06/07 12:20:47;;;;;;;26.77;16.65;;;18.20;99.90;;;;;;5052120;28;20412;-66
2023/06/07 12:23:20;;;;;;;26.75;17.02;;;18.00;99.90;;;;;;5047371;28;20500;-67
2023/06/07 12:25:45;;;;;;;29.07;16.67;;;18.30;99.90;;;;;;5053239;28;20407;-66
2023/06/07 12:28:14;;;;;;;25.15;15.80;;;18.60;99.90;;;;;;5056766;28;20129;-66
2023/06/07 12:30:47;;;;;;;25.70;15.93;;;18.70;99.90;;;;;;5052992;28;20036;-66
2023/06/07 12:33:16;;;;;;;22.70;14.90;;;19.00;99.90;;;;;;5052827;28;20357;-66
2023/06/07 12:35:48;;;;;;;24.73;15.65;;;19.00;99.90;;;;;;5054272;28;20477;-66
2023/06/07 12:38:14;;;;;;;25.40;15.02;;;19.10;99.90;;;;;;5057803;28;20506;-66